Benson Mines, New York
Current Conditions -  °F | °C
As of 4:08 AM on Wednesday 22 Oct 2014 (Local Time) from KGTB Reporting Station
Overcast Overcast  
Wind Chill: 36°   Ceiling: 700
Heat Index: 43°   Visibility: 10mi
Dew Point: 41°   Wind: 14mph
Humidity: 93%   Direction: 50°NE
Pressure: 30.1"   Gusts: NA
Location:  44.1538°N, 74.996°W
Report Text: KGTB 220808Z AUTO 05012KT 10SM OVC007 06/05 A3010 RMK AO2
Loading
Personal Weather Stations






























Interactive Weather Map
Tropical Storm Tracking
New forecast layout! Learn more

10-Day Weather Forecast

Advertisements
Track Severe Weather on mobile